Time;durP1;ratioP1;P1;durP2;ratioP2;P2;SDS_P1;SDS_P2;PMS_P1;PMS_P2;Temp;Humidity;BMP_temperature;BMP_pressure;BME280_temperature;BME280_humidity;BME280_pressure;Samples;Min_cycle;Max_cycle;Signal;HPM_P1;HPM_P2
2022/08/11 00:08:08;;;;;;;1.50;0.87;;;23.50;69.50;;;;;;6611733;88;20331;-76
2022/08/11 00:18:10;;;;;;;1.52;0.70;;;23.10;70.40;;;;;;6636816;88;20211;-76
2022/08/11 00:28:24;;;;;;;1.42;0.80;;;22.50;71.80;;;;;;6715821;88;20319;-77
2022/08/11 00:38:28;;;;;;;1.45;1.00;;;22.30;73.60;;;;;;6632065;88;20227;-78
2022/08/11 00:48:40;;;;;;;1.33;0.88;;;22.00;74.10;;;;;;6655745;88;20319;-77
2022/08/11 00:59:05;;;;;;;1.62;0.90;;;21.50;75.70;;;;;;6641170;88;20664;-77
2022/08/11 01:09:48;;;;;;;1.35;0.80;;;21.40;75.90;;;;;;6611461;89;20859;-77
2022/08/11 01:20:33;;;;;;;1.42;0.82;;;21.30;76.70;;;;;;6620682;89;20205;-77
2022/08/11 01:30:58;;;;;;;1.40;0.80;;;21.20;77.00;;;;;;6613937;88;20788;-77
2022/08/11 01:41:14;;;;;;;2.03;1.10;;;21.10;78.60;;;;;;6629023;88;20654;-76
2022/08/11 01:51:25;;;;;;;1.25;0.80;;;20.80;77.80;;;;;;6626792;88;20281;-77
2022/08/11 02:01:35;;;;;;;1.73;1.02;;;20.60;80.00;;;;;;6692964;88;20215;-77
2022/08/11 02:11:37;;;;;;;1.10;0.62;;;20.60;80.10;;;;;;6647691;88;20971;-77
2022/08/11 02:42:44;;;;;;;1.35;0.70;;;20.50;81.20;;;;;;6660881;88;20228;-77
2022/08/11 02:52:57;;;;;;;1.50;1.02;;;20.20;80.40;;;;;;6621460;88;20215;-78
2022/08/11 03:03:09;;;;;;;1.30;0.80;;;19.90;81.50;;;;;;6625950;89;20169;-76
2022/08/11 03:24:03;;;;;;;1.60;0.98;;;19.50;83.40;;;;;;6636790;88;20204;-75
2022/08/11 03:34:17;;;;;;;1.37;0.70;;;19.60;83.60;;;;;;6665109;88;20347;-78
2022/08/11 03:44:46;;;;;;;1.33;0.70;;;19.50;84.50;;;;;;6696175;88;20192;-77
2022/08/11 03:55:09;;;;;;;2.10;1.00;;;19.20;87.50;;;;;;6645286;88;20204;-78
2022/08/11 04:05:28;;;;;;;1.58;0.95;;;19.20;89.10;;;;;;6637902;88;20177;-77
2022/08/11 04:16:03;;;;;;;1.20;0.50;;;19.00;90.70;;;;;;6667277;88;20207;-77
2022/08/11 04:26:47;;;;;;;1.50;0.85;;;18.70;91.90;;;;;;6617186;89;20198;-76
2022/08/11 05:09:15;;;;;;;1.08;0.65;;;18.30;98.50;;;;;;6637853;88;20624;-78
2022/08/11 06:00:49;;;;;;;1.60;0.90;;;18.80;99.90;;;;;;6667361;88;20177;-76
2022/08/11 06:10:50;;;;;;;2.00;1.00;;;19.50;99.90;;;;;;6681699;88;20207;-80
2022/08/11 06:20:53;;;;;;;1.37;0.87;;;20.20;99.20;;;;;;6632347;88;20196;-79
2022/08/11 06:30:55;;;;;;;1.40;0.88;;;20.80;97.90;;;;;;6626972;88;20555;-78
2022/08/11 06:41:31;;;;;;;1.33;0.80;;;21.50;95.70;;;;;;6631118;89;20178;-78
2022/08/11 06:51:37;;;;;;;1.37;0.82;;;22.10;94.70;;;;;;6653416;88;20856;-78
2022/08/11 07:01:55;;;;;;;1.50;0.90;;;22.80;91.70;;;;;;6636192;88;20248;-78
2022/08/11 07:32:53;;;;;;;2.40;1.20;;;24.10;84.50;;;;;;6633976;88;20183;-77
2022/08/11 07:42:55;;;;;;;1.50;0.93;;;24.60;83.00;;;;;;6651336;88;20200;-76
2022/08/11 07:52:58;;;;;;;1.70;1.00;;;25.30;81.70;;;;;;6634898;88;20553;-76
2022/08/11 08:23:40;;;;;;;1.98;1.20;;;26.80;76.00;;;;;;6638111;88;20665;-78
2022/08/11 08:33:42;;;;;;;1.95;1.20;;;27.20;74.20;;;;;;6634501;88;20232;-77
2022/08/11 08:43:47;;;;;;;1.58;1.12;;;28.50;72.10;;;;;;6641076;88;20250;-78
2022/08/11 08:53:53;;;;;;;1.60;1.00;;;29.30;70.50;;;;;;6647486;88;20244;-78
2022/08/11 09:03:54;;;;;;;1.50;1.05;;;29.40;68.80;;;;;;6667625;88;20223;-77
2022/08/11 09:13:55;;;;;;;1.40;0.97;;;29.70;68.80;;;;;;6681374;88;20718;-75
2022/08/11 09:34:15;;;;;;;1.52;1.10;;;31.20;67.60;;;;;;6658370;88;20196;-75
2022/08/11 09:54:36;;;;;;;1.65;0.90;;;32.40;62.20;;;;;;6637843;88;20189;-75
2022/08/11 10:04:44;;;;;;;1.87;1.30;;;32.90;63.00;;;;;;6633534;88;20542;-78
2022/08/11 10:35:31;;;;;;;1.45;0.93;;;34.70;58.00;;;;;;6624668;88;20233;-76
2022/08/11 11:27:33;;;;;;;2.35;1.25;;;37.70;55.70;;;;;;6695350;88;20178;-79
2022/08/11 11:37:35;;;;;;;1.30;1.00;;;35.80;54.60;;;;;;6694732;88;20714;-79
2022/08/11 11:47:37;;;;;;;1.50;1.00;;;34.80;54.80;;;;;;6694173;88;20227;-79
2022/08/11 12:08:16;;;;;;;1.75;1.33;;;35.90;54.00;;;;;;6682050;88;20198;-78
2022/08/11 12:18:17;;;;;;;1.92;1.12;;;33.80;55.50;;;;;;6686582;88;20347;-78
2022/08/11 12:28:21;;;;;;;1.60;1.00;;;34.30;55.70;;;;;;6688152;88;20577;-78
2022/08/11 12:38:22;;;;;;;1.70;1.10;;;34.90;54.50;;;;;;6682513;88;20194;-78
2022/08/11 13:09:17;;;;;;;1.30;1.00;;;37.60;53.10;;;;;;6685064;88;20389;-78
2022/08/11 13:19:19;;;;;;;1.37;0.98;;;36.80;51.90;;;;;;6689358;88;20234;-78
2022/08/11 13:29:26;;;;;;;1.20;0.85;;;35.70;52.90;;;;;;6688135;88;20182;-79
2022/08/11 13:39:30;;;;;;;1.65;1.08;;;36.60;52.20;;;;;;6683419;88;20203;-78
2022/08/11 13:49:34;;;;;;;1.37;0.90;;;35.30;52.90;;;;;;6689081;88;20334;-79
2022/08/11 13:59:35;;;;;;;1.40;1.10;;;36.00;52.30;;;;;;6678805;88;20191;-78
2022/08/11 14:09:41;;;;;;;1.33;0.93;;;37.40;51.80;;;;;;6681389;88;20222;-77
2022/08/11 14:19:46;;;;;;;1.23;0.93;;;36.70;51.10;;;;;;6683478;88;20832;-79
2022/08/11 14:29:46;;;;;;;1.62;1.00;;;36.10;51.60;;;;;;6685075;88;20240;-79
2022/08/11 14:39:51;;;;;;;1.20;0.90;;;37.20;51.70;;;;;;6683159;88;20693;-78
2022/08/11 14:49:54;;;;;;;1.70;1.10;;;37.30;51.00;;;;;;6681302;88;20246;-77
2022/08/11 14:59:58;;;;;;;1.30;0.95;;;36.20;50.70;;;;;;6679423;88;20286;-79
2022/08/11 15:10:03;;;;;;;1.12;0.90;;;36.30;51.20;;;;;;6682229;88;20229;-78
2022/08/11 15:51:34;;;;;;;1.40;1.00;;;36.80;50.20;;;;;;6678499;88;20318;-76
2022/08/11 16:12:04;;;;;;;1.30;0.90;;;35.20;50.40;;;;;;6680805;88;20355;-79
2022/08/11 16:22:09;;;;;;;2.40;1.50;;;35.10;51.00;;;;;;6696070;88;20181;-79
2022/08/11 16:32:15;;;;;;;1.27;0.98;;;34.70;50.80;;;;;;6681040;88;20290;-77
2022/08/11 16:52:41;;;;;;;1.30;1.02;;;33.80;51.20;;;;;;6678651;88;20186;-77
2022/08/11 17:13:14;;;;;;;1.40;0.90;;;34.10;51.70;;;;;;6686538;88;20739;-78
2022/08/11 18:04:33;;;;;;;1.37;1.02;;;33.00;52.20;;;;;;6722498;88;20189;-79
